createdAt,value
2023-01-26T00:01:29.352Z,60.13
2023-01-26T00:03:57.419Z,57.50
2023-01-26T00:06:25.382Z,53.67
2023-01-26T00:08:56.776Z,51.47
2023-01-26T00:11:27.059Z,55.07
2023-01-26T00:13:56.558Z,60.37
2023-01-26T00:16:24.530Z,49.43
2023-01-26T00:18:51.590Z,50.87
2023-01-26T00:21:21.761Z,52.90
2023-01-26T00:23:49.928Z,51.53
2023-01-26T00:26:24.250Z,47.60
2023-01-26T00:28:53.032Z,47.10
2023-01-26T00:31:26.399Z,53.97
2023-01-26T00:33:56.039Z,48.97
2023-01-26T00:36:23.343Z,49.07
2023-01-26T00:38:50.432Z,52.67
2023-01-26T00:41:36.185Z,49.10
2023-01-26T00:44:03.223Z,45.47
2023-01-26T00:46:30.419Z,58.57
2023-01-26T00:48:57.441Z,50.17
2023-01-26T00:51:24.673Z,48.93
2023-01-26T00:53:51.676Z,51.60
2023-01-26T00:56:18.789Z,44.43
2023-01-26T00:58:45.846Z,47.33
2023-01-26T01:01:13.070Z,50.00
2023-01-26T01:03:40.128Z,48.10
2023-01-26T01:06:07.149Z,50.50
2023-01-26T01:08:34.191Z,48.37
2023-01-26T01:11:12.253Z,57.40
2023-01-26T01:13:40.069Z,52.07
2023-01-26T01:16:13.931Z,50.13
2023-01-26T01:18:41.375Z,55.83
2023-01-26T01:21:10.760Z,52.17
2023-01-26T01:23:38.339Z,53.70
2023-01-26T01:26:07.026Z,49.00
2023-01-26T01:28:36.014Z,49.40
2023-01-26T01:31:11.445Z,52.33
2023-01-26T01:33:39.255Z,53.50
2023-01-26T01:36:14.270Z,54.93
2023-01-26T01:38:42.886Z,58.70
2023-01-26T01:41:10.990Z,55.00
2023-01-26T01:43:38.598Z,56.13
2023-01-26T01:46:28.492Z,52.70
2023-01-26T01:49:32.224Z,55.53
2023-01-26T01:52:01.627Z,52.67
2023-01-26T01:54:36.948Z,54.13
2023-01-26T01:57:15.534Z,49.67
2023-01-26T01:59:55.433Z,48.63
2023-01-26T02:02:22.515Z,53.27
2023-01-26T02:04:49.757Z,50.80
2023-01-26T02:07:17.014Z,51.60
2023-01-26T02:10:03.720Z,52.40
2023-01-26T02:12:33.135Z,46.83
2023-01-26T02:15:01.431Z,50.00
2023-01-26T02:17:28.497Z,53.43
2023-01-26T02:20:07.368Z,54.27
2023-01-26T02:23:07.837Z,53.07
2023-01-26T02:25:34.801Z,51.20
2023-01-26T02:28:02.050Z,55.93
2023-01-26T02:30:29.993Z,53.90
2023-01-26T02:32:57.143Z,58.63
2023-01-26T02:35:24.248Z,54.07
2023-01-26T02:37:51.275Z,55.27
2023-01-26T02:41:01.490Z,51.77
2023-01-26T02:43:28.882Z,50.90
2023-01-26T02:45:55.974Z,50.67
2023-01-26T02:48:41.937Z,57.90
2023-01-26T02:51:09.054Z,53.03
2023-01-26T02:53:36.361Z,47.30
2023-01-26T02:56:03.437Z,56.63
2023-01-26T02:58:30.495Z,53.17
2023-01-26T03:00:57.574Z,51.77
2023-01-26T03:03:45.120Z,51.20
2023-01-26T03:06:13.199Z,51.00
2023-01-26T03:08:41.201Z,53.77
2023-01-26T03:11:09.375Z,53.90
2023-01-26T03:13:36.772Z,56.70
2023-01-26T03:16:08.412Z,52.43
2023-01-26T03:18:55.140Z,55.80
2023-01-26T03:21:41.344Z,52.93
2023-01-26T03:24:34.074Z,53.57
2023-01-26T03:27:19.915Z,55.70
2023-01-26T03:29:46.987Z,56.27
2023-01-26T03:32:15.247Z,54.53
2023-01-26T03:34:42.294Z,55.33
2023-01-26T03:37:09.830Z,53.43
2023-01-26T03:39:55.738Z,53.40
2023-01-26T03:42:41.594Z,52.43
2023-01-26T03:45:27.899Z,53.57
2023-01-26T03:48:30.515Z,57.43
2023-01-26T03:51:16.461Z,56.07
2023-01-26T03:54:02.818Z,54.10
2023-01-26T03:56:33.126Z,59.30
2023-01-26T03:59:09.333Z,52.33
2023-01-26T04:02:02.734Z,55.40
2023-01-26T04:04:48.428Z,54.67
2023-01-26T04:07:34.352Z,55.77
2023-01-26T04:10:01.387Z,57.43
2023-01-26T04:12:28.460Z,52.13
2023-01-26T04:15:13.834Z,60.53
2023-01-26T04:17:59.383Z,50.83
2023-01-26T04:20:44.878Z,56.67
2023-01-26T04:23:20.034Z,55.47
2023-01-26T04:25:48.942Z,53.93
2023-01-26T04:28:16.147Z,57.60
2023-01-26T04:30:44.406Z,56.07
2023-01-26T04:33:11.539Z,52.90
2023-01-26T04:35:38.702Z,57.57
2023-01-26T04:38:05.706Z,56.00
2023-01-26T04:40:32.675Z,58.90
2023-01-26T04:42:59.688Z,54.97
2023-01-26T04:45:26.780Z,59.33
2023-01-26T04:47:53.867Z,58.03
2023-01-26T04:50:20.907Z,57.80
2023-01-26T04:52:48.061Z,56.73
2023-01-26T04:55:15.099Z,55.60
2023-01-26T04:57:42.248Z,61.00
2023-01-26T05:00:12.340Z,54.30
2023-01-26T05:02:40.594Z,60.93
2023-01-26T05:05:08.339Z,59.50
2023-01-26T05:07:35.377Z,59.77
2023-01-26T05:10:02.496Z,56.03
2023-01-26T05:12:35.371Z,54.80
2023-01-26T05:15:02.550Z,52.33
2023-01-26T05:17:29.659Z,60.43
2023-01-26T05:19:56.658Z,55.83
2023-01-26T05:22:23.650Z,59.83
2023-01-26T05:24:50.667Z,52.73
2023-01-26T05:27:23.840Z,54.90
2023-01-26T05:29:51.993Z,58.00
2023-01-26T05:32:19.279Z,64.57
2023-01-26T05:34:46.596Z,55.23
2023-01-26T05:37:14.939Z,54.63
2023-01-26T05:39:42.763Z,59.07
2023-01-26T05:42:12.421Z,57.27
2023-01-26T05:44:39.941Z,64.70
2023-01-26T05:47:07.095Z,54.23
2023-01-26T05:49:34.143Z,60.57
2023-01-26T05:52:01.351Z,59.87
2023-01-26T05:54:28.569Z,59.83
2023-01-26T05:56:57.596Z,61.57
2023-01-26T05:59:24.767Z,57.43
2023-01-26T06:01:51.795Z,60.57
2023-01-26T06:04:19.072Z,65.17
2023-01-26T06:06:46.239Z,60.77
2023-01-26T06:09:13.369Z,60.13
2023-01-26T06:11:40.392Z,54.33
2023-01-26T06:14:07.465Z,54.93
2023-01-26T06:16:34.560Z,50.20
2023-01-26T06:19:01.687Z,44.20
2023-01-26T06:21:28.752Z,51.27
2023-01-26T06:23:55.836Z,51.40
2023-01-26T06:26:24.589Z,55.23
2023-01-26T06:28:53.048Z,55.80
2023-01-26T06:31:21.406Z,55.17
2023-01-26T06:33:48.496Z,45.20
2023-01-26T06:36:16.186Z,51.00
2023-01-26T06:38:54.032Z,46.50
2023-01-26T06:41:22.659Z,46.37
2023-01-26T06:43:49.848Z,52.83
2023-01-26T06:46:17.891Z,47.37
2023-01-26T06:48:45.551Z,51.70
2023-01-26T06:51:18.470Z,46.13
2023-01-26T06:53:56.805Z,55.17
2023-01-26T06:56:25.055Z,58.20
2023-01-26T06:58:52.130Z,52.83
2023-01-26T07:01:26.700Z,58.03
2023-01-26T07:03:55.206Z,59.97
2023-01-26T07:06:22.268Z,58.93
2023-01-26T07:08:49.420Z,59.50
2023-01-26T07:11:17.384Z,62.73
2023-01-26T07:13:44.496Z,65.03
2023-01-26T07:16:15.494Z,62.70
2023-01-26T07:18:42.984Z,58.10
2023-01-26T07:21:18.501Z,57.60
2023-01-26T07:23:46.781Z,62.37
2023-01-26T07:26:14.547Z,62.57
2023-01-26T07:28:41.623Z,61.13
2023-01-26T07:31:11.284Z,53.30
2023-01-26T07:33:38.492Z,58.80
2023-01-26T07:36:06.491Z,57.37
2023-01-26T07:38:35.320Z,56.33
2023-01-26T07:41:11.881Z,50.83
2023-01-26T07:43:39.981Z,51.40
2023-01-26T07:46:07.229Z,55.70
2023-01-26T07:48:34.468Z,49.20
2023-01-26T07:51:03.891Z,49.57
2023-01-26T07:53:34.130Z,54.37
2023-01-26T07:56:13.643Z,51.17
2023-01-26T07:58:41.192Z,46.37
2023-01-26T08:01:13.483Z,50.60
2023-01-26T08:03:41.234Z,50.10
2023-01-26T08:06:12.036Z,55.33
2023-01-26T08:08:41.552Z,48.80
2023-01-26T08:11:10.432Z,46.47
2023-01-26T08:13:38.143Z,48.17
2023-01-26T08:16:12.658Z,49.63
2023-01-26T08:18:46.004Z,50.27
2023-01-26T08:21:15.024Z,46.13
2023-01-26T08:23:42.372Z,43.73
2023-01-26T08:26:13.659Z,39.67
2023-01-26T08:28:41.573Z,41.83
2023-01-26T08:31:17.952Z,41.77
2023-01-26T08:33:47.119Z,41.23
2023-01-26T08:36:16.042Z,42.73
2023-01-26T08:38:44.009Z,46.57
2023-01-26T08:41:12.282Z,43.87
2023-01-26T08:43:39.883Z,41.30
2023-01-26T08:46:07.333Z,43.87
2023-01-26T08:48:34.491Z,32.73
2023-01-26T08:51:05.219Z,36.80
2023-01-26T08:53:35.864Z,38.63
2023-01-26T08:56:04.739Z,35.47
2023-01-26T08:58:33.811Z,37.77
2023-01-26T09:01:09.064Z,29.20
2023-01-26T09:03:36.321Z,33.00
2023-01-26T09:06:04.873Z,34.43
2023-01-26T09:08:32.480Z,33.63
2023-01-26T09:10:59.985Z,35.30
2023-01-26T09:13:27.058Z,33.43
2023-01-26T09:15:54.254Z,26.77
2023-01-26T09:18:21.283Z,30.07
2023-01-26T09:20:49.848Z,27.27
2023-01-26T09:23:18.254Z,28.20
2023-01-26T09:25:45.344Z,30.43
2023-01-26T09:28:12.439Z,31.00
2023-01-26T09:30:39.557Z,23.63
2023-01-26T09:33:07.296Z,24.03
2023-01-26T09:35:34.389Z,21.17
2023-01-26T09:38:01.438Z,21.87
2023-01-26T09:41:06.417Z,28.93
2023-01-26T09:43:53.355Z,25.47
2023-01-26T09:47:04.518Z,24.13
2023-01-26T09:49:51.723Z,24.40
2023-01-26T09:52:40.835Z,26.67
2023-01-26T09:55:16.023Z,25.60
2023-01-26T09:58:24.087Z,27.07
2023-01-26T10:00:57.562Z,26.53
2023-01-26T10:03:57.502Z,22.53
2023-01-26T10:06:31.656Z,23.70
2023-01-26T10:09:06.819Z,26.40
2023-01-26T10:11:42.602Z,25.43
2023-01-26T10:14:38.598Z,22.67
2023-01-26T10:17:12.723Z,23.60
2023-01-26T10:19:45.923Z,23.33
2023-01-26T10:22:42.427Z,24.97
2023-01-26T10:25:19.591Z,27.10
2023-01-26T10:27:47.141Z,26.27
2023-01-26T10:30:17.241Z,22.20
2023-01-26T10:32:47.275Z,25.63
2023-01-26T10:35:25.811Z,22.53
2023-01-26T10:37:53.297Z,19.90
2023-01-26T10:40:21.706Z,24.50
2023-01-26T10:42:58.514Z,23.83
2023-01-26T10:45:34.010Z,25.53
2023-01-26T10:48:30.237Z,21.23
2023-01-26T10:51:16.718Z,20.47
2023-01-26T10:53:43.722Z,21.93
2023-01-26T10:56:17.219Z,22.13
2023-01-26T10:58:47.127Z,21.30
2023-01-26T11:01:18.790Z,21.43
2023-01-26T11:04:20.158Z,20.70
2023-01-26T11:06:47.372Z,23.57
2023-01-26T11:09:14.224Z,18.47
2023-01-26T11:11:41.971Z,23.00
2023-01-26T11:14:19.605Z,22.60
2023-01-26T11:16:56.610Z,19.77
2023-01-26T11:19:44.886Z,24.17
2023-01-26T11:23:00.020Z,21.93
2023-01-26T11:26:20.508Z,19.20
2023-01-26T11:29:41.425Z,20.63
2023-01-26T11:32:22.015Z,19.37
2023-01-26T11:35:32.477Z,21.47
2023-01-26T11:38:26.995Z,19.73
2023-01-26T11:41:28.078Z,23.17
2023-01-26T11:44:07.993Z,17.90
2023-01-26T11:46:59.448Z,20.60
2023-01-26T11:49:47.529Z,18.47
2023-01-26T11:52:46.231Z,25.13
2023-01-26T11:55:47.099Z,23.57
2023-01-26T11:58:32.722Z,23.00
2023-01-26T12:01:13.430Z,20.70
2023-01-26T12:03:53.219Z,21.57
2023-01-26T12:06:40.393Z,21.10
2023-01-26T12:09:33.402Z,22.37
2023-01-26T12:12:17.734Z,24.73
2023-01-26T12:15:00.498Z,19.90
2023-01-26T12:17:45.933Z,20.20
2023-01-26T12:20:45.519Z,21.03
2023-01-26T12:23:21.363Z,21.70
2023-01-26T12:26:05.728Z,20.73
2023-01-26T12:28:51.266Z,23.90
2023-01-26T12:31:42.967Z,22.83
2023-01-26T12:34:13.517Z,24.50
2023-01-26T12:37:10.350Z,25.30
2023-01-26T12:39:47.840Z,21.63
2023-01-26T12:42:44.047Z,23.40
2023-01-26T12:45:27.660Z,20.47
2023-01-26T12:48:22.012Z,22.83
2023-01-26T12:51:00.992Z,21.07
2023-01-26T12:53:39.211Z,24.40
2023-01-26T12:56:40.896Z,21.93
2023-01-26T12:59:46.899Z,22.57
2023-01-26T13:02:32.484Z,23.30
2023-01-26T13:05:01.931Z,27.33
2023-01-26T13:07:39.503Z,25.97
2023-01-26T13:10:19.336Z,21.73
2023-01-26T13:12:55.033Z,25.77
2023-01-26T13:15:31.760Z,23.07
2023-01-26T13:18:04.320Z,24.37
2023-01-26T13:20:40.238Z,25.60
2023-01-26T13:23:45.975Z,23.67
2023-01-26T13:26:20.195Z,23.40
2023-01-26T13:28:49.125Z,23.63
2023-01-26T13:31:34.273Z,24.60
2023-01-26T13:34:08.369Z,23.37
2023-01-26T13:36:39.127Z,30.00
2023-01-26T13:39:18.329Z,25.43
2023-01-26T13:41:47.874Z,27.43
2023-01-26T13:44:26.993Z,27.80
2023-01-26T13:47:08.812Z,25.93
2023-01-26T13:49:43.830Z,31.00
2023-01-26T13:52:21.521Z,28.93
2023-01-26T13:54:50.839Z,31.23
2023-01-26T13:57:24.858Z,25.93
2023-01-26T13:59:59.304Z,32.67
2023-01-26T14:02:35.546Z,29.93
2023-01-26T14:05:03.668Z,30.97
2023-01-26T14:07:43.578Z,33.30
2023-01-26T14:10:20.210Z,29.50
2023-01-26T14:12:56.729Z,29.97
2023-01-26T14:15:35.095Z,35.73
2023-01-26T14:18:09.056Z,30.73
2023-01-26T14:20:39.799Z,31.53
2023-01-26T14:23:18.884Z,29.23
2023-01-26T14:25:58.318Z,29.73
2023-01-26T14:28:34.806Z,35.00
2023-01-26T14:31:24.445Z,34.27
2023-01-26T14:33:57.733Z,35.93
2023-01-26T14:36:37.126Z,30.40
2023-01-26T14:39:20.823Z,33.53
2023-01-26T14:41:49.763Z,35.33
2023-01-26T14:44:16.903Z,38.80
2023-01-26T14:47:03.722Z,36.93
2023-01-26T14:50:00.016Z,37.23
2023-01-26T14:52:34.892Z,36.97
2023-01-26T14:55:22.645Z,42.60
2023-01-26T14:57:51.807Z,45.40
2023-01-26T15:00:28.933Z,38.43
2023-01-26T15:02:59.267Z,38.60
2023-01-26T15:05:38.838Z,35.17
2023-01-26T15:08:24.207Z,40.80
2023-01-26T15:11:25.390Z,37.50
2023-01-26T15:13:55.517Z,39.17
2023-01-26T15:16:26.566Z,39.93
2023-01-26T15:19:06.891Z,37.80
2023-01-26T15:21:40.169Z,39.23
2023-01-26T15:24:14.014Z,40.90
2023-01-26T15:26:42.512Z,36.37
2023-01-26T15:29:27.858Z,42.07
2023-01-26T15:31:57.164Z,44.00
2023-01-26T15:35:02.724Z,41.77
2023-01-26T15:37:33.832Z,39.93
2023-01-26T15:40:00.966Z,34.83
2023-01-26T15:42:32.977Z,37.47
2023-01-26T15:45:00.093Z,45.77
2023-01-26T15:47:27.141Z,42.60
2023-01-26T15:49:54.223Z,40.27
2023-01-26T15:52:26.269Z,45.13
2023-01-26T15:54:54.161Z,37.03
2023-01-26T15:57:21.173Z,38.87
2023-01-26T15:59:48.216Z,36.00
2023-01-26T16:02:19.015Z,34.47
2023-01-26T16:04:46.753Z,42.83
2023-01-26T16:07:17.881Z,45.73
2023-01-26T16:09:45.220Z,39.07
2023-01-26T16:12:33.781Z,35.73
2023-01-26T16:15:01.135Z,41.10
2023-01-26T16:17:28.423Z,37.10
2023-01-26T16:19:55.607Z,36.80
2023-01-26T16:22:22.706Z,37.20
2023-01-26T16:24:49.686Z,38.13
2023-01-26T16:27:16.747Z,42.27
2023-01-26T16:29:43.708Z,36.47
2023-01-26T16:32:30.569Z,38.33
2023-01-26T16:34:57.713Z,40.67
2023-01-26T16:37:24.780Z,39.53
2023-01-26T16:39:51.828Z,38.37
2023-01-26T16:42:21.280Z,35.97
2023-01-26T16:44:48.584Z,45.97
2023-01-26T16:47:15.572Z,41.93
2023-01-26T16:49:42.628Z,42.03
2023-01-26T16:52:10.278Z,36.83
2023-01-26T16:54:37.503Z,36.77
2023-01-26T16:57:04.964Z,40.10
2023-01-26T16:59:32.032Z,46.17
2023-01-26T17:01:59.360Z,41.20
2023-01-26T17:04:26.481Z,42.23
2023-01-26T17:06:53.514Z,38.07
2023-01-26T17:09:21.356Z,38.47
2023-01-26T17:11:48.540Z,38.47
2023-01-26T17:14:15.633Z,38.63
2023-01-26T17:16:42.705Z,35.73
2023-01-26T17:19:09.913Z,35.47
2023-01-26T17:21:37.186Z,35.40
2023-01-26T17:24:06.846Z,36.23
2023-01-26T17:26:33.940Z,36.77
2023-01-26T17:29:01.014Z,42.67
2023-01-26T17:31:28.677Z,35.50
2023-01-26T17:33:55.944Z,36.07
2023-01-26T17:36:23.143Z,35.70
2023-01-26T17:38:50.455Z,35.23
2023-01-26T17:41:18.191Z,34.67
2023-01-26T17:43:45.685Z,34.43
2023-01-26T17:46:21.215Z,31.33
2023-01-26T17:48:49.704Z,36.80
2023-01-26T17:51:20.412Z,37.70
2023-01-26T17:53:51.601Z,34.43
2023-01-26T17:56:21.573Z,35.37
2023-01-26T17:58:52.151Z,28.20
2023-01-26T18:01:23.649Z,32.33
2023-01-26T18:03:51.285Z,27.70
2023-01-26T18:06:18.414Z,32.50
2023-01-26T18:08:45.862Z,30.50
2023-01-26T18:11:15.680Z,31.50
2023-01-26T18:13:43.200Z,31.43
2023-01-26T18:16:14.831Z,33.30
2023-01-26T18:18:42.814Z,30.80
2023-01-26T18:21:30.305Z,27.60
2023-01-26T18:24:02.160Z,35.23
2023-01-26T18:26:33.652Z,33.23
2023-01-26T18:29:00.726Z,29.87
2023-01-26T18:31:34.708Z,33.53
2023-01-26T18:34:03.634Z,28.97
2023-01-26T18:36:31.944Z,32.53
2023-01-26T18:39:02.288Z,28.43
2023-01-26T18:41:33.151Z,31.80
2023-01-26T18:44:03.100Z,23.90
2023-01-26T18:46:31.421Z,27.20
2023-01-26T18:49:03.151Z,26.03
2023-01-26T18:51:35.669Z,30.27
2023-01-26T18:54:04.949Z,31.23
2023-01-26T18:56:32.737Z,28.47
2023-01-26T18:58:59.772Z,25.70
2023-01-26T19:01:26.895Z,21.47
2023-01-26T19:03:55.589Z,27.73
2023-01-26T19:06:25.495Z,22.40
2023-01-26T19:08:58.842Z,23.93
2023-01-26T19:11:31.992Z,25.70
2023-01-26T19:14:00.216Z,26.87
2023-01-26T19:16:29.076Z,24.93
2023-01-26T19:18:56.449Z,24.53
2023-01-26T19:21:25.772Z,24.80
2023-01-26T19:23:55.375Z,27.00
2023-01-26T19:26:26.267Z,27.83
2023-01-26T19:28:54.691Z,28.60
2023-01-26T19:31:22.659Z,32.47
2023-01-26T19:34:02.496Z,29.37
2023-01-26T19:36:33.299Z,31.93
2023-01-26T19:39:01.759Z,32.10
2023-01-26T19:41:29.023Z,26.40
2023-01-26T19:43:56.062Z,27.17
2023-01-26T19:46:23.463Z,27.50
2023-01-26T19:48:50.883Z,32.30
2023-01-26T19:51:26.643Z,27.73
2023-01-26T19:54:00.037Z,32.83
2023-01-26T19:56:31.354Z,30.03
2023-01-26T19:59:01.763Z,32.83
2023-01-26T20:01:30.405Z,27.33
2023-01-26T20:04:00.702Z,32.77
2023-01-26T20:06:31.230Z,37.43
2023-01-26T20:08:59.476Z,34.60
2023-01-26T20:11:29.071Z,34.97
2023-01-26T20:13:58.494Z,40.67
2023-01-26T20:16:29.207Z,32.50
2023-01-26T20:18:59.177Z,30.97
2023-01-26T20:21:28.215Z,41.60
2023-01-26T20:23:56.268Z,34.90
2023-01-26T20:26:25.979Z,30.93
2023-01-26T20:28:56.893Z,36.33
2023-01-26T20:31:27.167Z,34.60
2023-01-26T20:33:55.074Z,30.30
2023-01-26T20:36:25.994Z,34.50
2023-01-26T20:38:53.979Z,33.30
2023-01-26T20:41:28.352Z,32.43
2023-01-26T20:44:01.128Z,36.87
2023-01-26T20:46:41.117Z,35.13
2023-01-26T20:49:12.698Z,30.20
2023-01-26T20:51:42.659Z,35.93
2023-01-26T20:54:14.026Z,31.37
2023-01-26T20:56:41.448Z,33.07
2023-01-26T20:59:08.998Z,26.83
2023-01-26T21:01:36.425Z,31.60
2023-01-26T21:04:05.508Z,28.13
2023-01-26T21:06:33.044Z,31.53
2023-01-26T21:09:04.037Z,31.50
2023-01-26T21:11:32.053Z,27.17
2023-01-26T21:14:01.811Z,24.87
2023-01-26T21:16:31.380Z,25.23
2023-01-26T21:18:58.765Z,21.03
2023-01-26T21:21:26.045Z,27.53
2023-01-26T21:23:53.209Z,21.87
2023-01-26T21:26:23.282Z,25.73
2023-01-26T21:28:59.777Z,22.30
2023-01-26T21:31:30.321Z,24.03
2023-01-26T21:33:58.668Z,20.87
2023-01-26T21:36:30.888Z,21.07
2023-01-26T21:38:59.973Z,23.40
2023-01-26T21:41:47.711Z,25.93
2023-01-26T21:44:18.451Z,20.03
2023-01-26T21:46:47.109Z,21.33
2023-01-26T21:49:15.128Z,23.40
2023-01-26T21:52:01.083Z,25.87
2023-01-26T21:54:30.003Z,21.57
2023-01-26T21:56:57.891Z,27.13
2023-01-26T21:59:25.208Z,25.60
2023-01-26T22:01:55.525Z,23.33
2023-01-26T22:04:28.566Z,25.57
2023-01-26T22:06:57.072Z,27.67
2023-01-26T22:09:24.570Z,25.50
2023-01-26T22:11:52.829Z,26.63
2023-01-26T22:14:22.686Z,24.90
2023-01-26T22:16:50.157Z,26.43
2023-01-26T22:19:17.308Z,24.87
2023-01-26T22:21:44.838Z,24.23
2023-01-26T22:24:14.440Z,29.80
2023-01-26T22:26:42.248Z,24.43
2023-01-26T22:29:13.196Z,25.13
2023-01-26T22:31:40.438Z,23.17
2023-01-26T22:34:07.700Z,22.53
2023-01-26T22:36:34.803Z,24.60
2023-01-26T22:39:01.891Z,26.83
2023-01-26T22:41:30.431Z,30.03
2023-01-26T22:44:00.148Z,24.83
2023-01-26T22:46:29.717Z,28.57
2023-01-26T22:48:58.810Z,30.20
2023-01-26T22:51:29.709Z,25.83
2023-01-26T22:53:58.597Z,29.20
2023-01-26T22:56:26.850Z,28.97
2023-01-26T22:58:59.385Z,29.37
2023-01-26T23:01:30.088Z,26.63
2023-01-26T23:03:58.608Z,32.17
2023-01-26T23:06:25.792Z,27.83
2023-01-26T23:08:53.229Z,28.53
2023-01-26T23:11:27.878Z,26.70
2023-01-26T23:13:57.688Z,28.30
2023-01-26T23:16:25.772Z,30.37
2023-01-26T23:18:56.170Z,32.53
2023-01-26T23:21:25.159Z,26.47
2023-01-26T23:23:52.614Z,27.50
2023-01-26T23:26:20.538Z,30.57
2023-01-26T23:28:48.200Z,27.20
2023-01-26T23:31:18.011Z,28.40
2023-01-26T23:33:46.121Z,31.53
2023-01-26T23:36:14.981Z,31.47
2023-01-26T23:38:44.315Z,27.27
2023-01-26T23:41:12.069Z,35.37
2023-01-26T23:43:39.759Z,29.33
2023-01-26T23:46:09.409Z,31.17
2023-01-26T23:48:36.946Z,32.67
2023-01-26T23:51:08.584Z,34.97
2023-01-26T23:53:36.297Z,32.17
2023-01-26T23:56:29.671Z,29.30
2023-01-26T23:58:56.658Z,28.63
